sensor_id;sensor_type;location;lat;lon;timestamp;temperature;humidity
65072;DHT22;51663;52.310;17.016;2022-10-24T00:01:41;32.90;31.30
65072;DHT22;51663;52.310;17.016;2022-10-24T00:04:43;33.00;31.20
65072;DHT22;51663;52.310;17.016;2022-10-24T00:07:47;32.90;31.50
65072;DHT22;51663;52.310;17.016;2022-10-24T00:10:49;32.90;31.70
65072;DHT22;51663;52.310;17.016;2022-10-24T00:13:53;32.90;32.10
65072;DHT22;51663;52.310;17.016;2022-10-24T00:16:55;32.80;32.10
65072;DHT22;51663;52.310;17.016;2022-10-24T00:19:57;33.00;32.20
65072;DHT22;51663;52.310;17.016;2022-10-24T00:23:01;33.00;32.10
65072;DHT22;51663;52.310;17.016;2022-10-24T00:26:04;32.90;32.20
65072;DHT22;51663;52.310;17.016;2022-10-24T00:29:06;32.80;32.20
65072;DHT22;51663;52.310;17.016;2022-10-24T00:32:09;32.80;32.20
65072;DHT22;51663;52.310;17.016;2022-10-24T00:35:11;32.80;32.20
65072;DHT22;51663;52.310;17.016;2022-10-24T00:38:13;32.90;32.00
65072;DHT22;51663;52.310;17.016;2022-10-24T00:41:24;32.80;32.20
65072;DHT22;51663;52.310;17.016;2022-10-24T00:44:30;32.60;32.50
65072;DHT22;51663;52.310;17.016;2022-10-24T00:47:32;32.80;32.40
65072;DHT22;51663;52.310;17.016;2022-10-24T00:50:34;32.90;32.30
65072;DHT22;51663;52.310;17.016;2022-10-24T00:53:42;33.00;32.40
65072;DHT22;51663;52.310;17.016;2022-10-24T01:00:20;33.10;32.20
65072;DHT22;51663;52.310;17.016;2022-10-24T01:03:23;33.20;32.80
65072;DHT22;51663;52.310;17.016;2022-10-24T01:06:52;33.30;32.00
65072;DHT22;51663;52.310;17.016;2022-10-24T01:10:06;33.30;31.90
65072;DHT22;51663;52.310;17.016;2022-10-24T01:16:41;33.50;31.70
65072;DHT22;51663;52.310;17.016;2022-10-24T01:33:04;33.60;31.40
65072;DHT22;51663;52.310;17.016;2022-10-24T01:36:20;33.60;31.30
65072;DHT22;51663;52.310;17.016;2022-10-24T01:39:33;33.60;31.30
65072;DHT22;51663;52.310;17.016;2022-10-24T01:42:38;33.60;31.40
65072;DHT22;51663;52.310;17.016;2022-10-24T01:45:45;33.60;31.40
65072;DHT22;51663;52.310;17.016;2022-10-24T01:48:57;33.60;31.40
65072;DHT22;51663;52.310;17.016;2022-10-24T01:52:03;33.70;31.50
65072;DHT22;51663;52.310;17.016;2022-10-24T01:55:07;33.60;31.40
65072;DHT22;51663;52.310;17.016;2022-10-24T01:58:09;33.60;31.50
65072;DHT22;51663;52.310;17.016;2022-10-24T02:01:15;33.60;31.50
65072;DHT22;51663;52.310;17.016;2022-10-24T02:04:19;33.60;31.50
65072;DHT22;51663;52.310;17.016;2022-10-24T02:07:23;33.50;31.50
65072;DHT22;51663;52.310;17.016;2022-10-24T02:10:33;33.60;31.60
65072;DHT22;51663;52.310;17.016;2022-10-24T02:13:42;33.60;31.80
65072;DHT22;51663;52.310;17.016;2022-10-24T02:16:46;33.60;31.80
65072;DHT22;51663;52.310;17.016;2022-10-24T02:19:48;33.70;31.90
65072;DHT22;51663;52.310;17.016;2022-10-24T02:22:57;33.80;31.80
65072;DHT22;51663;52.310;17.016;2022-10-24T02:26:04;33.80;31.70
65072;DHT22;51663;52.310;17.016;2022-10-24T02:29:14;33.80;31.50
65072;DHT22;51663;52.310;17.016;2022-10-24T02:32:34;33.80;31.50
65072;DHT22;51663;52.310;17.016;2022-10-24T02:35:38;33.90;31.80
65072;DHT22;51663;52.310;17.016;2022-10-24T02:38:43;33.90;31.60
65072;DHT22;51663;52.310;17.016;2022-10-24T02:41:46;33.90;31.60
65072;DHT22;51663;52.310;17.016;2022-10-24T02:44:49;33.90;31.50
65072;DHT22;51663;52.310;17.016;2022-10-24T02:47:55;33.80;31.60
65072;DHT22;51663;52.310;17.016;2022-10-24T02:50:59;33.70;31.90
65072;DHT22;51663;52.310;17.016;2022-10-24T02:54:03;33.80;31.70
65072;DHT22;51663;52.310;17.016;2022-10-24T02:57:05;33.80;31.90
65072;DHT22;51663;52.310;17.016;2022-10-24T03:00:08;33.80;31.80
65072;DHT22;51663;52.310;17.016;2022-10-24T03:03:10;33.80;31.90
65072;DHT22;51663;52.310;17.016;2022-10-24T03:06:12;33.80;31.90
65072;DHT22;51663;52.310;17.016;2022-10-24T03:09:14;33.40;32.20
65072;DHT22;51663;52.310;17.016;2022-10-24T03:12:17;32.90;32.90
65072;DHT22;51663;52.310;17.016;2022-10-24T03:15:19;33.00;33.00
65072;DHT22;51663;52.310;17.016;2022-10-24T03:18:21;33.10;33.00
65072;DHT22;51663;52.310;17.016;2022-10-24T03:21:23;33.20;32.90
65072;DHT22;51663;52.310;17.016;2022-10-24T03:24:25;33.20;33.00
65072;DHT22;51663;52.310;17.016;2022-10-24T03:27:45;33.30;33.00
65072;DHT22;51663;52.310;17.016;2022-10-24T03:30:47;33.40;32.80
65072;DHT22;51663;52.310;17.016;2022-10-24T03:33:49;33.50;32.80
65072;DHT22;51663;52.310;17.016;2022-10-24T03:36:51;33.60;32.80
65072;DHT22;51663;52.310;17.016;2022-10-24T03:39:54;33.60;32.60
65072;DHT22;51663;52.310;17.016;2022-10-24T03:42:56;33.70;33.20
65072;DHT22;51663;52.310;17.016;2022-10-24T03:45:58;33.80;32.40
65072;DHT22;51663;52.310;17.016;2022-10-24T03:49:00;33.90;32.30
65072;DHT22;51663;52.310;17.016;2022-10-24T03:52:07;33.90;32.20
65072;DHT22;51663;52.310;17.016;2022-10-24T03:55:09;34.00;32.30
65072;DHT22;51663;52.310;17.016;2022-10-24T03:58:12;33.90;32.40
65072;DHT22;51663;52.310;17.016;2022-10-24T04:01:14;33.80;32.50
65072;DHT22;51663;52.310;17.016;2022-10-24T04:04:19;33.80;32.60
65072;DHT22;51663;52.310;17.016;2022-10-24T04:07:21;33.80;32.80
65072;DHT22;51663;52.310;17.016;2022-10-24T04:10:23;33.60;32.80
65072;DHT22;51663;52.310;17.016;2022-10-24T04:13:25;33.60;32.80
65072;DHT22;51663;52.310;17.016;2022-10-24T04:16:27;33.70;32.80
65072;DHT22;51663;52.310;17.016;2022-10-24T04:19:29;33.70;32.60
65072;DHT22;51663;52.310;17.016;2022-10-24T04:22:31;33.70;32.60
65072;DHT22;51663;52.310;17.016;2022-10-24T04:25:33;33.50;32.90
65072;DHT22;51663;52.310;17.016;2022-10-24T04:28:36;33.50;32.80
65072;DHT22;51663;52.310;17.016;2022-10-24T04:31:38;33.50;32.90
65072;DHT22;51663;52.310;17.016;2022-10-24T04:34:40;33.50;32.60
65072;DHT22;51663;52.310;17.016;2022-10-24T04:37:42;33.60;32.50
65072;DHT22;51663;52.310;17.016;2022-10-24T04:40:49;33.60;32.50
65072;DHT22;51663;52.310;17.016;2022-10-24T04:43:52;33.60;32.30
65072;DHT22;51663;52.310;17.016;2022-10-24T04:46:54;33.60;32.00
65072;DHT22;51663;52.310;17.016;2022-10-24T04:49:56;33.60;31.80
65072;DHT22;51663;52.310;17.016;2022-10-24T04:52:58;33.60;31.60
65072;DHT22;51663;52.310;17.016;2022-10-24T04:56:00;33.60;31.40
65072;DHT22;51663;52.310;17.016;2022-10-24T04:59:02;33.50;31.30
65072;DHT22;51663;52.310;17.016;2022-10-24T05:02:04;33.30;31.70
65072;DHT22;51663;52.310;17.016;2022-10-24T05:05:07;33.20;31.90
65072;DHT22;51663;52.310;17.016;2022-10-24T05:08:09;33.10;32.20
65072;DHT22;51663;52.310;17.016;2022-10-24T05:11:11;33.10;32.00
65072;DHT22;51663;52.310;17.016;2022-10-24T05:14:13;33.10;32.10
65072;DHT22;51663;52.310;17.016;2022-10-24T05:17:15;33.10;32.00
65072;DHT22;51663;52.310;17.016;2022-10-24T05:20:17;33.10;32.00
65072;DHT22;51663;52.310;17.016;2022-10-24T05:23:19;33.10;31.50
65072;DHT22;51663;52.310;17.016;2022-10-24T05:26:21;33.10;31.50
65072;DHT22;51663;52.310;17.016;2022-10-24T05:29:24;33.10;31.10
65072;DHT22;51663;52.310;17.016;2022-10-24T05:32:26;33.10;31.10
65072;DHT22;51663;52.310;17.016;2022-10-24T05:35:28;33.10;31.50
65072;DHT22;51663;52.310;17.016;2022-10-24T05:38:30;33.10;30.90
65072;DHT22;51663;52.310;17.016;2022-10-24T05:41:33;33.00;30.60
65072;DHT22;51663;52.310;17.016;2022-10-24T05:44:35;33.00;30.40
65072;DHT22;51663;52.310;17.016;2022-10-24T05:47:37;33.00;30.60
65072;DHT22;51663;52.310;17.016;2022-10-24T05:50:39;33.00;30.30
65072;DHT22;51663;52.310;17.016;2022-10-24T05:53:41;32.90;30.50
65072;DHT22;51663;52.310;17.016;2022-10-24T05:56:43;32.90;30.60
65072;DHT22;51663;52.310;17.016;2022-10-24T05:59:45;32.90;30.80
65072;DHT22;51663;52.310;17.016;2022-10-24T06:02:47;32.90;30.90
65072;DHT22;51663;52.310;17.016;2022-10-24T06:05:50;32.90;31.10
65072;DHT22;51663;52.310;17.016;2022-10-24T06:08:52;32.90;31.50
65072;DHT22;51663;52.310;17.016;2022-10-24T06:11:54;33.00;30.90
65072;DHT22;51663;52.310;17.016;2022-10-24T06:14:57;33.10;31.00
65072;DHT22;51663;52.310;17.016;2022-10-24T06:17:59;33.10;31.10
65072;DHT22;51663;52.310;17.016;2022-10-24T06:21:03;33.10;32.10
65072;DHT22;51663;52.310;17.016;2022-10-24T06:24:06;33.10;31.30
65072;DHT22;51663;52.310;17.016;2022-10-24T06:27:08;33.20;31.40
65072;DHT22;51663;52.310;17.016;2022-10-24T06:30:12;33.20;31.10
65072;DHT22;51663;52.310;17.016;2022-10-24T06:33:14;33.30;31.20
65072;DHT22;51663;52.310;17.016;2022-10-24T06:36:16;33.40;31.00
65072;DHT22;51663;52.310;17.016;2022-10-24T06:39:19;33.40;31.10
65072;DHT22;51663;52.310;17.016;2022-10-24T06:42:21;33.40;31.10
65072;DHT22;51663;52.310;17.016;2022-10-24T06:45:23;33.50;31.10
65072;DHT22;51663;52.310;17.016;2022-10-24T06:48:26;33.60;31.10
65072;DHT22;51663;52.310;17.016;2022-10-24T06:51:28;33.60;31.40
65072;DHT22;51663;52.310;17.016;2022-10-24T06:54:30;33.60;31.60
65072;DHT22;51663;52.310;17.016;2022-10-24T06:57:32;33.60;31.70
65072;DHT22;51663;52.310;17.016;2022-10-24T07:00:36;33.60;31.90
65072;DHT22;51663;52.310;17.016;2022-10-24T07:03:38;33.60;32.00
65072;DHT22;51663;52.310;17.016;2022-10-24T07:06:40;33.80;32.00
65072;DHT22;51663;52.310;17.016;2022-10-24T07:09:43;33.80;32.00
65072;DHT22;51663;52.310;17.016;2022-10-24T07:12:46;33.80;32.00
65072;DHT22;51663;52.310;17.016;2022-10-24T07:15:48;34.00;31.90
65072;DHT22;51663;52.310;17.016;2022-10-24T07:18:55;33.90;32.00
65072;DHT22;51663;52.310;17.016;2022-10-24T07:21:57;34.10;32.00
65072;DHT22;51663;52.310;17.016;2022-10-24T07:25:00;34.20;31.90
65072;DHT22;51663;52.310;17.016;2022-10-24T07:28:02;34.30;31.80
65072;DHT22;51663;52.310;17.016;2022-10-24T07:31:05;34.40;31.80
65072;DHT22;51663;52.310;17.016;2022-10-24T07:34:08;34.40;31.60
65072;DHT22;51663;52.310;17.016;2022-10-24T07:37:10;34.40;31.70
65072;DHT22;51663;52.310;17.016;2022-10-24T07:40:12;34.50;31.80
65072;DHT22;51663;52.310;17.016;2022-10-24T07:43:15;34.60;32.00
65072;DHT22;51663;52.310;17.016;2022-10-24T07:46:18;34.70;31.60
65072;DHT22;51663;52.310;17.016;2022-10-24T07:49:20;34.80;31.70
65072;DHT22;51663;52.310;17.016;2022-10-24T07:52:22;34.80;31.80
65072;DHT22;51663;52.310;17.016;2022-10-24T07:55:24;34.80;31.60
65072;DHT22;51663;52.310;17.016;2022-10-24T07:58:27;34.80;31.70
65072;DHT22;51663;52.310;17.016;2022-10-24T08:01:29;34.80;31.80
65072;DHT22;51663;52.310;17.016;2022-10-24T08:04:31;34.80;31.70
65072;DHT22;51663;52.310;17.016;2022-10-24T08:07:35;34.80;31.70
65072;DHT22;51663;52.310;17.016;2022-10-24T08:10:37;34.80;31.80
65072;DHT22;51663;52.310;17.016;2022-10-24T08:13:39;34.70;31.90
65072;DHT22;51663;52.310;17.016;2022-10-24T08:16:41;34.70;32.10
65072;DHT22;51663;52.310;17.016;2022-10-24T08:19:44;34.60;32.50
65072;DHT22;51663;52.310;17.016;2022-10-24T08:22:46;34.60;32.70
65072;DHT22;51663;52.310;17.016;2022-10-24T08:25:49;34.80;32.60
65072;DHT22;51663;52.310;17.016;2022-10-24T08:28:51;34.90;32.20
65072;DHT22;51663;52.310;17.016;2022-10-24T08:31:55;35.10;32.00
65072;DHT22;51663;52.310;17.016;2022-10-24T08:34:57;34.90;32.00
65072;DHT22;51663;52.310;17.016;2022-10-24T08:37:59;34.80;32.10
65072;DHT22;51663;52.310;17.016;2022-10-24T08:41:02;34.80;32.10
65072;DHT22;51663;52.310;17.016;2022-10-24T08:47:41;35.00;32.10
65072;DHT22;51663;52.310;17.016;2022-10-24T08:50:49;35.20;32.20
65072;DHT22;51663;52.310;17.016;2022-10-24T08:53:55;35.30;31.90
65072;DHT22;51663;52.310;17.016;2022-10-24T08:56:58;35.30;31.40
65072;DHT22;51663;52.310;17.016;2022-10-24T09:00:42;35.60;31.40
65072;DHT22;51663;52.310;17.016;2022-10-24T09:03:50;35.80;31.70
65072;DHT22;51663;52.310;17.016;2022-10-24T09:06:58;35.80;31.20
65072;DHT22;51663;52.310;17.016;2022-10-24T09:10:13;35.90;31.50
65072;DHT22;51663;52.310;17.016;2022-10-24T09:13:17;35.80;31.80
65072;DHT22;51663;52.310;17.016;2022-10-24T09:16:21;36.00;31.10
65072;DHT22;51663;52.310;17.016;2022-10-24T09:19:27;36.10;30.90
65072;DHT22;51663;52.310;17.016;2022-10-24T09:22:32;36.30;30.70
65072;DHT22;51663;52.310;17.016;2022-10-24T09:25:35;36.30;30.90
65072;DHT22;51663;52.310;17.016;2022-10-24T09:28:40;36.30;31.00
65072;DHT22;51663;52.310;17.016;2022-10-24T09:31:42;36.50;30.80
65072;DHT22;51663;52.310;17.016;2022-10-24T09:34:44;36.50;30.50
65072;DHT22;51663;52.310;17.016;2022-10-24T09:37:49;36.60;30.80
65072;DHT22;51663;52.310;17.016;2022-10-24T09:40:54;36.60;30.60
65072;DHT22;51663;52.310;17.016;2022-10-24T09:43:58;36.50;30.50
65072;DHT22;51663;52.310;17.016;2022-10-24T09:47:03;36.50;30.70
65072;DHT22;51663;52.310;17.016;2022-10-24T09:50:18;36.30;31.00
65072;DHT22;51663;52.310;17.016;2022-10-24T09:56:36;35.90;31.30
65072;DHT22;51663;52.310;17.016;2022-10-24T10:02:56;36.30;31.20
65072;DHT22;51663;52.310;17.016;2022-10-24T10:06:16;36.50;30.90
65072;DHT22;51663;52.310;17.016;2022-10-24T10:09:25;35.90;31.70
65072;DHT22;51663;52.310;17.016;2022-10-24T10:12:37;35.80;32.00
65072;DHT22;51663;52.310;17.016;2022-10-24T10:15:46;36.10;31.30
65072;DHT22;51663;52.310;17.016;2022-10-24T10:18:51;35.90;31.70
65072;DHT22;51663;52.310;17.016;2022-10-24T10:22:05;35.80;31.80
65072;DHT22;51663;52.310;17.016;2022-10-24T10:25:28;35.70;32.40
65072;DHT22;51663;52.310;17.016;2022-10-24T10:28:34;35.90;31.80
65072;DHT22;51663;52.310;17.016;2022-10-24T10:31:42;36.10;31.90
65072;DHT22;51663;52.310;17.016;2022-10-24T10:34:48;36.20;31.70
65072;DHT22;51663;52.310;17.016;2022-10-24T10:44:53;36.00;32.00
65072;DHT22;51663;52.310;17.016;2022-10-24T10:57:52;36.30;32.00
65072;DHT22;51663;52.310;17.016;2022-10-24T11:04:22;36.60;31.50
65072;DHT22;51663;52.310;17.016;2022-10-24T11:07:43;36.80;31.50
65072;DHT22;51663;52.310;17.016;2022-10-24T11:10:56;36.70;31.40
65072;DHT22;51663;52.310;17.016;2022-10-24T11:14:35;36.80;31.70
65072;DHT22;51663;52.310;17.016;2022-10-24T11:17:47;37.00;31.50
65072;DHT22;51663;52.310;17.016;2022-10-24T11:24:17;37.20;30.80
65072;DHT22;51663;52.310;17.016;2022-10-24T11:27:37;37.20;30.70
65072;DHT22;51663;52.310;17.016;2022-10-24T11:37:52;36.80;31.70
65072;DHT22;51663;52.310;17.016;2022-10-24T11:41:14;36.80;31.70
65072;DHT22;51663;52.310;17.016;2022-10-24T11:48:03;37.40;31.00
65072;DHT22;51663;52.310;17.016;2022-10-24T11:51:23;37.00;31.80
65072;DHT22;51663;52.310;17.016;2022-10-24T11:54:41;37.10;31.60
65072;DHT22;51663;52.310;17.016;2022-10-24T11:57:50;37.40;31.50
65072;DHT22;51663;52.310;17.016;2022-10-24T12:17:10;37.50;31.00
65072;DHT22;51663;52.310;17.016;2022-10-24T12:20:19;37.60;30.80
65072;DHT22;51663;52.310;17.016;2022-10-24T12:23:25;37.80;30.80
65072;DHT22;51663;52.310;17.016;2022-10-24T12:26:32;37.80;30.70
65072;DHT22;51663;52.310;17.016;2022-10-24T12:29:35;38.00;30.40
65072;DHT22;51663;52.310;17.016;2022-10-24T12:32:47;38.00;30.00
65072;DHT22;51663;52.310;17.016;2022-10-24T12:35:52;37.90;30.00
65072;DHT22;51663;52.310;17.016;2022-10-24T12:41:59;37.60;30.50
65072;DHT22;51663;52.310;17.016;2022-10-24T12:48:27;37.50;30.50
65072;DHT22;51663;52.310;17.016;2022-10-24T12:51:38;37.20;31.00
65072;DHT22;51663;52.310;17.016;2022-10-24T12:54:43;37.30;31.10
65072;DHT22;51663;52.310;17.016;2022-10-24T12:57:46;37.60;30.90
65072;DHT22;51663;52.310;17.016;2022-10-24T13:01:25;37.60;30.50
65072;DHT22;51663;52.310;17.016;2022-10-24T13:15:02;37.90;30.50
65072;DHT22;51663;52.310;17.016;2022-10-24T13:21:35;38.20;30.60
65072;DHT22;51663;52.310;17.016;2022-10-24T13:24:47;38.10;31.40
65072;DHT22;51663;52.310;17.016;2022-10-24T13:34:29;38.10;30.90
65072;DHT22;51663;52.310;17.016;2022-10-24T13:37:39;38.00;31.00
65072;DHT22;51663;52.310;17.016;2022-10-24T13:40:43;38.00;30.90
65072;DHT22;51663;52.310;17.016;2022-10-24T13:43:47;38.00;31.00
65072;DHT22;51663;52.310;17.016;2022-10-24T13:46:59;38.00;31.10
65072;DHT22;51663;52.310;17.016;2022-10-24T13:50:12;38.00;31.30
65072;DHT22;51663;52.310;17.016;2022-10-24T13:53:22;38.00;31.10
65072;DHT22;51663;52.310;17.016;2022-10-24T13:56:36;38.00;31.30
65072;DHT22;51663;52.310;17.016;2022-10-24T13:59:39;38.00;31.30
65072;DHT22;51663;52.310;17.016;2022-10-24T14:02:41;38.00;31.30
65072;DHT22;51663;52.310;17.016;2022-10-24T14:06:04;38.10;31.50
65072;DHT22;51663;52.310;17.016;2022-10-24T14:09:09;38.10;32.20
65072;DHT22;51663;52.310;17.016;2022-10-24T14:12:20;38.00;31.70
65072;DHT22;51663;52.310;17.016;2022-10-24T14:15:30;38.00;31.90
65072;DHT22;51663;52.310;17.016;2022-10-24T14:18:32;37.90;31.90
65072;DHT22;51663;52.310;17.016;2022-10-24T14:21:42;37.90;32.70
65072;DHT22;51663;52.310;17.016;2022-10-24T14:24:46;37.90;32.00
65072;DHT22;51663;52.310;17.016;2022-10-24T14:27:53;37.80;31.90
65072;DHT22;51663;52.310;17.016;2022-10-24T14:30:58;37.80;32.10
65072;DHT22;51663;52.310;17.016;2022-10-24T14:34:03;37.80;32.00
65072;DHT22;51663;52.310;17.016;2022-10-24T14:37:13;37.70;32.10
65072;DHT22;51663;52.310;17.016;2022-10-24T14:40:19;37.40;32.40
65072;DHT22;51663;52.310;17.016;2022-10-24T14:43:24;37.30;32.50
65072;DHT22;51663;52.310;17.016;2022-10-24T14:46:36;37.30;32.50
65072;DHT22;51663;52.310;17.016;2022-10-24T14:49:39;37.30;32.60
65072;DHT22;51663;52.310;17.016;2022-10-24T14:52:43;37.30;32.60
65072;DHT22;51663;52.310;17.016;2022-10-24T14:59:37;37.30;32.60
65072;DHT22;51663;52.310;17.016;2022-10-24T15:02:40;37.30;32.50
65072;DHT22;51663;52.310;17.016;2022-10-24T15:06:07;37.30;32.50
65072;DHT22;51663;52.310;17.016;2022-10-24T15:12:12;37.30;32.50
65072;DHT22;51663;52.310;17.016;2022-10-24T15:18:31;37.20;32.50
65072;DHT22;51663;52.310;17.016;2022-10-24T15:21:37;37.10;32.50
65072;DHT22;51663;52.310;17.016;2022-10-24T15:24:39;37.00;32.70
65072;DHT22;51663;52.310;17.016;2022-10-24T15:27:45;36.90;32.80
65072;DHT22;51663;52.310;17.016;2022-10-24T15:30:53;36.90;32.80
65072;DHT22;51663;52.310;17.016;2022-10-24T15:33:57;36.80;32.80
65072;DHT22;51663;52.310;17.016;2022-10-24T15:36:59;36.70;32.90
65072;DHT22;51663;52.310;17.016;2022-10-24T15:40:09;36.50;33.10
65072;DHT22;51663;52.310;17.016;2022-10-24T15:43:16;36.40;33.40
65072;DHT22;51663;52.310;17.016;2022-10-24T15:46:18;36.30;34.00
65072;DHT22;51663;52.310;17.016;2022-10-24T15:49:21;36.40;33.50
65072;DHT22;51663;52.310;17.016;2022-10-24T15:52:23;36.30;33.50
65072;DHT22;51663;52.310;17.016;2022-10-24T15:55:27;36.10;33.90
65072;DHT22;51663;52.310;17.016;2022-10-24T15:58:29;36.20;34.00
65072;DHT22;51663;52.310;17.016;2022-10-24T16:01:35;36.30;33.90
65072;DHT22;51663;52.310;17.016;2022-10-24T16:04:41;36.30;33.60
65072;DHT22;51663;52.310;17.016;2022-10-24T16:07:43;36.40;33.50
65072;DHT22;51663;52.310;17.016;2022-10-24T16:10:53;36.40;33.30
65072;DHT22;51663;52.310;17.016;2022-10-24T16:14:01;36.40;33.30
65072;DHT22;51663;52.310;17.016;2022-10-24T16:17:03;36.40;33.10
65072;DHT22;51663;52.310;17.016;2022-10-24T16:20:05;36.40;33.10
65072;DHT22;51663;52.310;17.016;2022-10-24T16:23:10;36.40;33.20
65072;DHT22;51663;52.310;17.016;2022-10-24T16:26:17;36.30;33.00
65072;DHT22;51663;52.310;17.016;2022-10-24T16:29:19;36.30;33.30
65072;DHT22;51663;52.310;17.016;2022-10-24T16:32:21;36.10;33.60
65072;DHT22;51663;52.310;17.016;2022-10-24T16:35:30;35.90;34.10
65072;DHT22;51663;52.310;17.016;2022-10-24T16:38:32;35.80;34.30
65072;DHT22;51663;52.310;17.016;2022-10-24T16:41:36;35.80;34.40
65072;DHT22;51663;52.310;17.016;2022-10-24T16:44:38;35.60;34.50
65072;DHT22;51663;52.310;17.016;2022-10-24T16:47:40;35.50;34.50
65072;DHT22;51663;52.310;17.016;2022-10-24T16:50:42;35.50;35.00
65072;DHT22;51663;52.310;17.016;2022-10-24T16:53:47;35.40;34.20
65072;DHT22;51663;52.310;17.016;2022-10-24T16:56:50;35.10;34.40
65072;DHT22;51663;52.310;17.016;2022-10-24T16:59:55;35.20;34.30
65072;DHT22;51663;52.310;17.016;2022-10-24T17:02:57;35.40;34.10
65072;DHT22;51663;52.310;17.016;2022-10-24T17:06:00;35.30;34.10
65072;DHT22;51663;52.310;17.016;2022-10-24T17:09:02;35.50;34.20
65072;DHT22;51663;52.310;17.016;2022-10-24T17:12:05;35.60;34.10
65072;DHT22;51663;52.310;17.016;2022-10-24T17:15:07;35.60;34.00
65072;DHT22;51663;52.310;17.016;2022-10-24T17:18:09;35.70;33.80
65072;DHT22;51663;52.310;17.016;2022-10-24T17:21:13;35.60;33.90
65072;DHT22;51663;52.310;17.016;2022-10-24T17:24:20;35.60;33.70
65072;DHT22;51663;52.310;17.016;2022-10-24T17:27:23;35.60;33.60
65072;DHT22;51663;52.310;17.016;2022-10-24T17:30:27;35.50;33.70
65072;DHT22;51663;52.310;17.016;2022-10-24T17:33:30;35.50;33.50
65072;DHT22;51663;52.310;17.016;2022-10-24T17:36:37;35.30;33.50
65072;DHT22;51663;52.310;17.016;2022-10-24T17:39:50;35.30;33.40
65072;DHT22;51663;52.310;17.016;2022-10-24T17:42:53;35.30;33.30
65072;DHT22;51663;52.310;17.016;2022-10-24T17:45:56;34.90;33.60
65072;DHT22;51663;52.310;17.016;2022-10-24T17:48:58;35.10;33.30
65072;DHT22;51663;52.310;17.016;2022-10-24T17:52:00;35.40;32.80
65072;DHT22;51663;52.310;17.016;2022-10-24T17:55:03;35.60;32.40
65072;DHT22;51663;52.310;17.016;2022-10-24T17:58:05;35.70;32.00
65072;DHT22;51663;52.310;17.016;2022-10-24T18:01:10;35.70;32.10
65072;DHT22;51663;52.310;17.016;2022-10-24T18:04:13;35.70;31.90
65072;DHT22;51663;52.310;17.016;2022-10-24T18:07:15;35.60;31.70
65072;DHT22;51663;52.310;17.016;2022-10-24T18:10:18;35.60;31.70
65072;DHT22;51663;52.310;17.016;2022-10-24T18:13:21;35.80;31.50
65072;DHT22;51663;52.310;17.016;2022-10-24T18:16:23;35.60;31.50
65072;DHT22;51663;52.310;17.016;2022-10-24T18:19:32;35.60;31.50
65072;DHT22;51663;52.310;17.016;2022-10-24T18:22:36;35.70;31.40
65072;DHT22;51663;52.310;17.016;2022-10-24T18:25:41;35.80;31.10
65072;DHT22;51663;52.310;17.016;2022-10-24T18:28:47;35.80;31.00
65072;DHT22;51663;52.310;17.016;2022-10-24T18:31:50;35.80;31.00
65072;DHT22;51663;52.310;17.016;2022-10-24T18:34:53;35.90;31.10
65072;DHT22;51663;52.310;17.016;2022-10-24T18:37:59;35.90;31.00
65072;DHT22;51663;52.310;17.016;2022-10-24T18:41:15;36.00;31.00
65072;DHT22;51663;52.310;17.016;2022-10-24T18:44:31;36.10;31.00
65072;DHT22;51663;52.310;17.016;2022-10-24T18:47:35;36.10;30.70
65072;DHT22;51663;52.310;17.016;2022-10-24T18:50:38;36.00;31.50
65072;DHT22;51663;52.310;17.016;2022-10-24T18:53:41;35.90;32.40
65072;DHT22;51663;52.310;17.016;2022-10-24T18:56:45;35.80;33.70
65072;DHT22;51663;52.310;17.016;2022-10-24T18:59:48;35.70;33.20
65072;DHT22;51663;52.310;17.016;2022-10-24T19:06:26;35.60;34.10
65072;DHT22;51663;52.310;17.016;2022-10-24T19:09:31;35.50;34.20
65072;DHT22;51663;52.310;17.016;2022-10-24T19:12:33;35.50;34.40
65072;DHT22;51663;52.310;17.016;2022-10-24T19:15:39;35.60;34.50
65072;DHT22;51663;52.310;17.016;2022-10-24T19:18:52;35.50;34.20
65072;DHT22;51663;52.310;17.016;2022-10-24T19:21:57;35.60;34.20
65072;DHT22;51663;52.310;17.016;2022-10-24T19:25:00;35.50;34.20
65072;DHT22;51663;52.310;17.016;2022-10-24T19:28:03;35.60;34.10
65072;DHT22;51663;52.310;17.016;2022-10-24T19:31:06;35.50;34.00
65072;DHT22;51663;52.310;17.016;2022-10-24T19:34:10;35.50;33.90
65072;DHT22;51663;52.310;17.016;2022-10-24T19:37:13;35.40;33.80
65072;DHT22;51663;52.310;17.016;2022-10-24T19:40:17;35.30;33.90
65072;DHT22;51663;52.310;17.016;2022-10-24T19:43:21;35.20;33.60
65072;DHT22;51663;52.310;17.016;2022-10-24T19:46:25;35.20;33.40
65072;DHT22;51663;52.310;17.016;2022-10-24T19:49:28;35.10;33.50
65072;DHT22;51663;52.310;17.016;2022-10-24T19:52:31;35.10;33.50
65072;DHT22;51663;52.310;17.016;2022-10-24T19:55:35;35.10;33.40
65072;DHT22;51663;52.310;17.016;2022-10-24T19:58:40;35.10;33.30
65072;DHT22;51663;52.310;17.016;2022-10-24T20:01:42;35.00;33.60
65072;DHT22;51663;52.310;17.016;2022-10-24T20:04:45;34.90;33.70
65072;DHT22;51663;52.310;17.016;2022-10-24T20:07:50;34.80;33.80
65072;DHT22;51663;52.310;17.016;2022-10-24T20:11:00;34.60;34.10
65072;DHT22;51663;52.310;17.016;2022-10-24T20:14:13;34.60;34.20
65072;DHT22;51663;52.310;17.016;2022-10-24T20:17:15;34.50;34.00
65072;DHT22;51663;52.310;17.016;2022-10-24T20:20:18;34.30;34.10
65072;DHT22;51663;52.310;17.016;2022-10-24T20:23:22;34.10;34.00
65072;DHT22;51663;52.310;17.016;2022-10-24T20:26:25;34.10;34.00
65072;DHT22;51663;52.310;17.016;2022-10-24T20:29:28;34.10;33.90
65072;DHT22;51663;52.310;17.016;2022-10-24T20:32:30;34.00;33.90
65072;DHT22;51663;52.310;17.016;2022-10-24T20:35:32;34.10;34.00
65072;DHT22;51663;52.310;17.016;2022-10-24T20:38:35;34.30;33.70
65072;DHT22;51663;52.310;17.016;2022-10-24T20:41:37;34.30;33.60
65072;DHT22;51663;52.310;17.016;2022-10-24T20:44:39;34.20;33.60
65072;DHT22;51663;52.310;17.016;2022-10-24T20:47:41;34.20;33.70
65072;DHT22;51663;52.310;17.016;2022-10-24T20:50:43;34.00;33.90
65072;DHT22;51663;52.310;17.016;2022-10-24T20:53:45;33.90;34.10
65072;DHT22;51663;52.310;17.016;2022-10-24T20:56:47;33.80;34.40
65072;DHT22;51663;52.310;17.016;2022-10-24T20:59:49;33.80;34.50
65072;DHT22;51663;52.310;17.016;2022-10-24T21:02:51;34.00;34.30
65072;DHT22;51663;52.310;17.016;2022-10-24T21:05:54;33.70;35.10
65072;DHT22;51663;52.310;17.016;2022-10-24T21:08:58;33.60;35.50
65072;DHT22;51663;52.310;17.016;2022-10-24T21:12:00;33.80;35.00